createdAt,value
2022-10-18T00:02:04.540Z,13.71
2022-10-18T00:04:31.116Z,13.66
2022-10-18T00:06:57.572Z,13.65
2022-10-18T00:09:24.017Z,13.58
2022-10-18T00:11:51.512Z,13.60
2022-10-18T00:14:17.903Z,13.59
2022-10-18T00:16:44.339Z,13.58
2022-10-18T00:19:10.823Z,13.57
2022-10-18T00:21:37.261Z,13.52
2022-10-18T00:24:04.076Z,13.54
2022-10-18T00:26:31.585Z,13.43
2022-10-18T00:29:02.017Z,13.43
2022-10-18T00:31:32.929Z,13.40
2022-10-18T00:34:05.531Z,13.37
2022-10-18T00:36:34.352Z,13.33
2022-10-18T00:39:02.251Z,13.34
2022-10-18T00:41:31.621Z,13.31
2022-10-18T00:43:59.701Z,13.25
2022-10-18T00:46:34.378Z,13.24
2022-10-18T00:49:07.080Z,13.26
2022-10-18T00:51:53.269Z,13.14
2022-10-18T00:54:20.829Z,13.20
2022-10-18T00:56:47.227Z,13.09
2022-10-18T00:59:15.727Z,13.10
2022-10-18T01:01:42.711Z,13.02
2022-10-18T01:04:09.324Z,13.01
2022-10-18T01:07:06.789Z,13.03
2022-10-18T01:09:42.216Z,12.98
2022-10-18T01:12:33.510Z,12.96
2022-10-18T01:15:08.512Z,12.93
2022-10-18T01:17:40.923Z,12.92
2022-10-18T01:20:41.333Z,12.88
2022-10-18T01:23:28.287Z,12.86
2022-10-18T01:26:19.247Z,12.85
2022-10-18T01:29:02.997Z,12.83
2022-10-18T01:31:40.891Z,12.80
2022-10-18T01:34:10.062Z,12.77
2022-10-18T01:36:43.465Z,12.70
2022-10-18T01:39:18.487Z,12.76
2022-10-18T01:41:46.733Z,12.74
2022-10-18T01:44:18.864Z,12.72
2022-10-18T01:46:47.062Z,12.68
2022-10-18T01:49:13.889Z,12.69
2022-10-18T01:51:40.530Z,12.67
2022-10-18T01:54:07.167Z,12.64
2022-10-18T01:56:49.816Z,12.63
2022-10-18T01:59:43.898Z,12.60
2022-10-18T02:02:37.677Z,12.62
2022-10-18T02:05:31.308Z,12.60
2022-10-18T02:08:12.523Z,12.61
2022-10-18T02:10:52.598Z,12.57
2022-10-18T02:13:21.285Z,12.54
2022-10-18T02:15:51.349Z,12.53
2022-10-18T02:18:24.880Z,12.48
2022-10-18T02:20:51.763Z,12.45
2022-10-18T02:23:21.532Z,12.42
2022-10-18T02:25:48.159Z,12.42
2022-10-18T02:28:14.717Z,12.33
2022-10-18T02:30:49.953Z,12.37
2022-10-18T02:33:57.198Z,12.36
2022-10-18T02:36:45.029Z,12.30
2022-10-18T02:39:18.748Z,12.32
2022-10-18T02:41:45.216Z,12.30
2022-10-18T02:44:11.654Z,12.28
2022-10-18T02:46:39.283Z,12.25
2022-10-18T02:49:05.945Z,12.22
2022-10-18T02:51:32.621Z,12.22
2022-10-18T02:53:59.153Z,12.20
2022-10-18T02:56:25.520Z,12.23
2022-10-18T02:58:51.879Z,12.11
2022-10-18T03:01:18.386Z,12.14
2022-10-18T03:03:44.905Z,12.13
2022-10-18T03:06:11.281Z,12.08
2022-10-18T03:08:38.076Z,12.13
2022-10-18T03:11:04.627Z,12.12
2022-10-18T03:13:31.001Z,12.17
2022-10-18T03:15:57.411Z,12.15
2022-10-18T03:18:23.922Z,12.11
2022-10-18T03:20:50.297Z,12.08
2022-10-18T03:23:17.002Z,12.12
2022-10-18T03:25:45.698Z,12.09
2022-10-18T03:28:12.989Z,12.04
2022-10-18T03:30:39.404Z,12.07
2022-10-18T03:33:06.402Z,12.03
2022-10-18T03:35:33.171Z,11.95
2022-10-18T03:37:59.662Z,11.97
2022-10-18T03:40:26.095Z,11.94
2022-10-18T03:42:52.488Z,11.95
2022-10-18T03:45:18.880Z,11.94
2022-10-18T03:47:45.326Z,11.87
2022-10-18T03:50:11.690Z,11.81
2022-10-18T03:52:38.172Z,11.81
2022-10-18T03:55:04.997Z,11.82
2022-10-18T03:57:31.405Z,11.82
2022-10-18T03:59:57.814Z,11.90
2022-10-18T04:02:24.762Z,11.81
2022-10-18T04:04:51.351Z,11.80
2022-10-18T04:07:18.126Z,11.82
2022-10-18T04:09:44.671Z,11.79
2022-10-18T04:12:11.103Z,11.80
2022-10-18T04:14:37.496Z,11.76
2022-10-18T04:17:04.819Z,11.90
2022-10-18T04:19:31.418Z,11.75
2022-10-18T04:21:57.876Z,11.71
2022-10-18T04:24:24.426Z,11.70
2022-10-18T04:26:50.908Z,11.75
2022-10-18T04:29:17.567Z,11.78
2022-10-18T04:31:44.168Z,11.79
2022-10-18T04:34:11.068Z,11.86
2022-10-18T04:36:37.461Z,11.90
2022-10-18T04:39:04.081Z,11.98
2022-10-18T04:41:30.546Z,12.00
2022-10-18T04:43:56.963Z,12.06
2022-10-18T04:46:23.335Z,12.09
2022-10-18T04:48:49.834Z,12.13
2022-10-18T04:51:16.301Z,12.08
2022-10-18T04:53:42.961Z,12.11
2022-10-18T04:56:09.519Z,12.17
2022-10-18T04:58:35.902Z,12.21
2022-10-18T05:01:07.782Z,12.27
2022-10-18T05:03:35.055Z,12.20
2022-10-18T05:06:03.383Z,12.21
2022-10-18T05:08:31.082Z,12.25
2022-10-18T05:10:57.606Z,12.26
2022-10-18T05:13:24.577Z,12.28
2022-10-18T05:15:51.414Z,12.28
2022-10-18T05:18:18.181Z,12.30
2022-10-18T05:20:44.677Z,12.34
2022-10-18T05:23:11.184Z,12.43
2022-10-18T05:25:42.172Z,12.40
2022-10-18T05:28:10.963Z,12.42
2022-10-18T05:30:42.852Z,12.47
2022-10-18T05:33:09.473Z,12.52
2022-10-18T05:35:36.228Z,12.53
2022-10-18T05:38:05.753Z,12.54
2022-10-18T05:40:38.460Z,12.58
2022-10-18T05:43:04.931Z,12.58
2022-10-18T05:45:31.360Z,12.62
2022-10-18T05:47:57.796Z,12.66
2022-10-18T05:50:24.450Z,12.72
2022-10-18T05:52:51.081Z,12.78
2022-10-18T05:55:17.528Z,12.83
2022-10-18T05:57:43.915Z,12.84
2022-10-18T06:00:11.140Z,12.88
2022-10-18T06:02:37.790Z,12.93
2022-10-18T06:05:04.434Z,12.95
2022-10-18T06:07:31.316Z,12.98
2022-10-18T06:09:57.886Z,13.03
2022-10-18T06:12:24.275Z,13.04
2022-10-18T06:14:50.790Z,13.07
2022-10-18T06:17:17.362Z,13.08
2022-10-18T06:19:44.435Z,13.16
2022-10-18T06:22:11.791Z,13.09
2022-10-18T06:24:39.034Z,13.21
2022-10-18T06:27:09.400Z,13.30
2022-10-18T06:29:37.107Z,13.55
2022-10-18T06:32:04.723Z,13.48
2022-10-18T06:34:31.415Z,13.56
2022-10-18T06:36:58.809Z,13.70
2022-10-18T06:39:25.665Z,13.63
2022-10-18T06:41:52.057Z,13.71
2022-10-18T06:44:18.696Z,13.94
2022-10-18T06:46:46.365Z,14.00
2022-10-18T06:49:16.748Z,14.33
2022-10-18T06:51:46.163Z,14.76
2022-10-18T06:54:17.891Z,14.67
2022-10-18T06:56:45.351Z,14.80
2022-10-18T06:59:11.742Z,14.59
2022-10-18T07:01:38.328Z,14.37
2022-10-18T07:04:04.798Z,14.31
2022-10-18T07:06:31.268Z,14.27
2022-10-18T07:08:57.794Z,14.31
2022-10-18T07:11:26.990Z,14.38
2022-10-18T07:13:54.780Z,14.32
2022-10-18T07:16:21.704Z,14.35
2022-10-18T07:18:51.737Z,14.42
2022-10-18T07:21:21.276Z,14.51
2022-10-18T07:23:48.953Z,14.59
2022-10-18T07:26:25.623Z,14.55
2022-10-18T07:28:59.169Z,14.52
2022-10-18T07:31:25.849Z,14.62
2022-10-18T07:36:33.021Z,14.53
2022-10-18T07:38:59.795Z,14.52
2022-10-18T07:41:26.608Z,14.48
2022-10-18T07:43:53.429Z,14.47
2022-10-18T07:46:21.629Z,14.76
2022-10-18T07:48:48.710Z,14.70
2022-10-18T07:51:15.495Z,14.63
2022-10-18T07:53:41.919Z,14.63
2022-10-18T07:56:15.813Z,14.65
2022-10-18T07:58:53.303Z,14.74
2022-10-18T08:01:21.421Z,14.89
2022-10-18T08:03:47.948Z,14.96
2022-10-18T08:06:16.425Z,15.16
2022-10-18T08:08:42.816Z,14.94
2022-10-18T08:11:12.628Z,14.88
2022-10-18T08:13:39.172Z,14.69
2022-10-18T08:16:08.180Z,14.66
2022-10-18T08:18:35.402Z,14.57
2022-10-18T08:21:06.792Z,14.76
2022-10-18T08:23:33.557Z,14.70
2022-10-18T08:26:08.716Z,14.62
2022-10-18T08:28:36.848Z,14.68
2022-10-18T08:31:08.537Z,14.54
2022-10-18T08:33:36.245Z,14.48
2022-10-18T08:36:05.853Z,14.51
2022-10-18T08:38:34.431Z,14.46
2022-10-18T08:41:27.232Z,14.46
2022-10-18T08:44:21.906Z,14.52
2022-10-18T08:46:51.801Z,14.56
2022-10-18T08:49:47.062Z,14.56
2022-10-18T08:55:15.821Z,14.66
2022-10-18T08:57:42.793Z,14.77
2022-10-18T09:00:17.590Z,14.76
2022-10-18T09:03:03.422Z,14.80
2022-10-18T09:05:36.040Z,14.79
2022-10-18T09:08:21.297Z,14.83
2022-10-18T09:10:53.641Z,14.99
2022-10-18T09:14:03.107Z,14.97
2022-10-18T09:16:45.749Z,14.94
2022-10-18T09:19:55.102Z,14.83
2022-10-18T09:22:39.081Z,15.09
2022-10-18T09:25:19.097Z,15.05
2022-10-18T09:27:53.680Z,15.04
2022-10-18T09:31:03.374Z,15.15
2022-10-18T09:33:50.879Z,15.01
2022-10-18T09:36:23.576Z,15.19
2022-10-18T09:38:57.222Z,15.20
2022-10-18T09:41:31.089Z,15.18
2022-10-18T09:44:25.131Z,15.03
2022-10-18T09:46:57.813Z,15.13
2022-10-18T09:49:33.009Z,15.06
2022-10-18T09:52:03.641Z,15.38
2022-10-18T09:54:37.784Z,15.45
2022-10-18T09:57:10.004Z,15.47
2022-10-18T09:59:50.517Z,15.50
2022-10-18T10:02:19.513Z,15.64
2022-10-18T10:04:45.935Z,15.92
2022-10-18T10:07:16.533Z,15.79
2022-10-18T10:10:25.291Z,15.85
2022-10-18T10:13:17.780Z,15.96
2022-10-18T10:15:55.180Z,15.89
2022-10-18T10:18:24.772Z,15.88
2022-10-18T10:20:55.919Z,16.19
2022-10-18T10:23:26.749Z,16.28
2022-10-18T10:25:55.477Z,16.57
2022-10-18T10:28:34.847Z,16.57
2022-10-18T10:31:26.981Z,16.56
2022-10-18T10:34:19.734Z,16.34
2022-10-18T10:36:47.761Z,16.39
2022-10-18T10:39:18.805Z,16.45
2022-10-18T10:41:57.037Z,16.05
2022-10-18T10:44:27.226Z,16.20
2022-10-18T10:46:54.963Z,16.02
2022-10-18T10:49:41.063Z,16.05
2022-10-18T10:52:26.695Z,15.75
2022-10-18T10:55:05.687Z,15.67
2022-10-18T10:57:32.902Z,15.79
2022-10-18T10:59:59.856Z,15.82
2022-10-18T11:02:31.182Z,15.69
2022-10-18T11:05:16.833Z,15.62
2022-10-18T11:07:46.348Z,15.48
2022-10-18T11:10:19.858Z,15.28
2022-10-18T11:12:52.152Z,15.13
2022-10-18T11:15:43.586Z,14.87
2022-10-18T11:18:25.629Z,14.74
2022-10-18T11:21:13.100Z,14.70
2022-10-18T11:23:42.035Z,14.71
2022-10-18T11:26:11.513Z,14.65
2022-10-18T11:29:15.598Z,14.84
2022-10-18T11:32:07.849Z,14.78
2022-10-18T11:35:12.196Z,14.78
2022-10-18T11:37:52.466Z,14.81
2022-10-18T11:40:43.294Z,14.89
2022-10-18T11:44:01.135Z,14.94
2022-10-18T11:46:30.077Z,15.03
2022-10-18T11:49:02.731Z,15.11
2022-10-18T11:51:34.292Z,15.00
2022-10-18T11:54:23.884Z,15.11
2022-10-18T11:57:02.022Z,15.13
2022-10-18T11:59:38.508Z,15.18
2022-10-18T12:02:42.611Z,15.16
2022-10-18T12:05:26.165Z,15.18
2022-10-18T12:08:14.195Z,15.24
2022-10-18T12:11:03.505Z,15.24
2022-10-18T12:13:44.404Z,15.19
2022-10-18T12:16:12.665Z,15.04
2022-10-18T12:19:07.702Z,14.92
2022-10-18T12:21:34.987Z,14.93
2022-10-18T12:24:04.794Z,14.90
2022-10-18T12:26:33.673Z,14.94
2022-10-18T12:29:26.359Z,14.93
2022-10-18T12:32:18.881Z,14.87
2022-10-18T12:34:57.000Z,14.88
2022-10-18T12:37:51.254Z,14.86
2022-10-18T12:40:23.518Z,14.98
2022-10-18T12:42:52.394Z,14.97
2022-10-18T12:45:34.213Z,14.93
2022-10-18T12:48:08.310Z,14.87
2022-10-18T12:50:43.584Z,14.86
2022-10-18T12:53:10.012Z,14.81
2022-10-18T12:55:38.915Z,14.76
2022-10-18T12:58:29.891Z,14.73
2022-10-18T13:00:58.737Z,14.76
2022-10-18T13:03:25.117Z,14.68
2022-10-18T13:05:59.953Z,14.67
2022-10-18T13:08:41.865Z,14.69
2022-10-18T13:11:08.241Z,14.73
2022-10-18T13:13:55.315Z,14.70
2022-10-18T13:16:37.094Z,14.67
2022-10-18T13:19:17.082Z,14.69
2022-10-18T13:21:52.602Z,14.69
2022-10-18T13:24:54.288Z,14.71
2022-10-18T13:27:47.769Z,14.74
2022-10-18T13:30:17.524Z,14.71
2022-10-18T13:32:46.897Z,14.71
2022-10-18T13:35:38.447Z,14.74
2022-10-18T13:38:22.073Z,14.73
2022-10-18T13:41:20.611Z,14.74
2022-10-18T13:43:53.151Z,14.74
2022-10-18T13:46:45.583Z,14.70
2022-10-18T13:49:33.914Z,14.70
2022-10-18T13:52:22.030Z,14.66
2022-10-18T13:55:19.023Z,14.67
2022-10-18T13:57:49.371Z,14.70
2022-10-18T14:00:32.494Z,14.70
2022-10-18T14:03:02.152Z,14.69
2022-10-18T14:05:44.990Z,14.69
2022-10-18T14:08:15.939Z,14.71
2022-10-18T14:11:06.107Z,14.69
2022-10-18T14:13:52.304Z,14.73
2022-10-18T14:16:34.643Z,14.77
2022-10-18T14:19:11.758Z,14.76
2022-10-18T14:21:44.128Z,14.75
2022-10-18T14:24:20.474Z,14.79
2022-10-18T14:26:47.270Z,14.76
2022-10-18T14:29:20.285Z,14.79
2022-10-18T14:31:54.399Z,14.80
2022-10-18T14:34:21.663Z,14.78
2022-10-18T14:36:49.512Z,14.79
2022-10-18T14:39:22.520Z,14.76
2022-10-18T14:41:54.458Z,14.70
2022-10-18T14:44:26.086Z,14.69
2022-10-18T14:47:00.174Z,14.71
2022-10-18T14:49:26.700Z,14.66
2022-10-18T14:51:55.912Z,14.66
2022-10-18T14:54:33.296Z,14.65
2022-10-18T14:57:01.236Z,14.66
2022-10-18T14:59:32.285Z,14.60
2022-10-18T15:02:02.035Z,14.61
2022-10-18T15:04:35.124Z,14.61
2022-10-18T15:07:04.348Z,14.57
2022-10-18T15:09:33.001Z,14.60
2022-10-18T15:12:01.230Z,14.61
2022-10-18T15:14:28.857Z,14.54
2022-10-18T15:17:02.602Z,14.56
2022-10-18T15:19:34.219Z,14.53
2022-10-18T15:25:27.870Z,14.51
2022-10-18T15:27:57.962Z,14.50
2022-10-18T15:30:29.797Z,14.47
2022-10-18T15:33:01.461Z,14.44
2022-10-18T15:35:30.433Z,14.43
2022-10-18T15:38:00.150Z,14.43
2022-10-18T15:40:31.869Z,14.42
2022-10-18T15:43:24.261Z,14.36
2022-10-18T15:45:53.383Z,14.37
2022-10-18T15:48:26.223Z,14.32
2022-10-18T15:50:58.260Z,14.32
2022-10-18T15:53:35.338Z,14.28
2022-10-18T15:56:09.813Z,14.26
2022-10-18T15:58:46.620Z,14.21
2022-10-18T16:01:18.750Z,14.17
2022-10-18T16:03:46.739Z,14.16
2022-10-18T16:06:18.049Z,14.14
2022-10-18T16:08:54.559Z,14.12
2022-10-18T16:11:23.504Z,14.12
2022-10-18T16:13:54.009Z,14.11
2022-10-18T16:16:26.208Z,14.08
2022-10-18T16:18:52.884Z,14.11
2022-10-18T16:21:39.534Z,14.08
2022-10-18T16:24:06.360Z,14.07
2022-10-18T16:26:33.766Z,14.08
2022-10-18T16:29:00.880Z,14.12
2022-10-18T16:31:30.447Z,14.11
2022-10-18T16:33:57.598Z,14.11
2022-10-18T16:36:28.967Z,14.12
2022-10-18T16:38:56.522Z,14.13
2022-10-18T16:41:23.779Z,14.12
2022-10-18T16:43:50.755Z,14.13
2022-10-18T16:46:21.035Z,14.14
2022-10-18T16:48:48.841Z,14.18
2022-10-18T16:51:15.393Z,14.15
2022-10-18T16:53:42.118Z,14.10
2022-10-18T16:56:31.226Z,14.03
2022-10-18T16:58:59.072Z,13.95
2022-10-18T17:01:26.363Z,13.98
2022-10-18T17:03:53.612Z,13.89
2022-10-18T17:06:26.127Z,13.88
2022-10-18T17:08:54.532Z,13.87
2022-10-18T17:11:22.449Z,13.87
2022-10-18T17:13:49.022Z,13.90
2022-10-18T17:16:23.353Z,13.92
2022-10-18T17:18:49.822Z,13.94
2022-10-18T17:21:16.230Z,13.94
2022-10-18T17:23:42.731Z,13.94
2022-10-18T17:26:28.759Z,13.94
2022-10-18T17:29:06.990Z,13.92
2022-10-18T17:31:33.967Z,13.89
2022-10-18T17:34:01.901Z,13.86
2022-10-18T17:36:30.586Z,13.86
2022-10-18T17:38:57.245Z,13.88
2022-10-18T17:41:23.930Z,13.86
2022-10-18T17:43:50.323Z,13.87
2022-10-18T17:46:17.954Z,13.85
2022-10-18T17:48:44.635Z,13.86
2022-10-18T17:51:13.667Z,13.85
2022-10-18T17:53:40.082Z,13.87
2022-10-18T17:56:07.785Z,13.86
2022-10-18T17:58:35.108Z,13.84
2022-10-18T18:01:15.844Z,13.86
2022-10-18T18:03:42.598Z,13.87
2022-10-18T18:06:33.770Z,13.86
2022-10-18T18:09:04.917Z,13.87
2022-10-18T18:11:31.414Z,13.85
2022-10-18T18:13:58.494Z,13.89
2022-10-18T18:16:27.528Z,13.88
2022-10-18T18:18:56.670Z,13.90
2022-10-18T18:21:24.278Z,13.90
2022-10-18T18:23:50.782Z,13.87
2022-10-18T18:26:18.796Z,13.87
2022-10-18T18:28:45.964Z,13.86
2022-10-18T18:31:24.574Z,13.91
2022-10-18T18:33:52.775Z,13.87
2022-10-18T18:36:20.582Z,13.85
2022-10-18T18:38:47.675Z,13.87
2022-10-18T18:41:20.299Z,13.88
2022-10-18T18:43:52.009Z,13.87
2022-10-18T18:46:18.705Z,13.87
2022-10-18T18:48:45.263Z,13.88
2022-10-18T18:51:14.445Z,13.89
2022-10-18T18:53:42.314Z,13.89
2022-10-18T18:56:11.263Z,13.91
2022-10-18T18:58:39.049Z,13.89
2022-10-18T19:01:11.496Z,13.88
2022-10-18T19:03:40.248Z,13.88
2022-10-18T19:06:09.893Z,13.91
2022-10-18T19:08:38.082Z,13.92
2022-10-18T19:11:08.118Z,13.91
2022-10-18T19:13:35.701Z,13.89
2022-10-18T19:16:17.120Z,13.85
2022-10-18T19:18:43.526Z,13.85
2022-10-18T19:21:10.118Z,13.84
2022-10-18T19:23:36.525Z,13.78
2022-10-18T19:26:37.708Z,13.74
2022-10-18T19:29:10.692Z,13.73
2022-10-18T19:31:38.567Z,13.75
2022-10-18T19:34:07.632Z,13.80
2022-10-18T19:36:35.238Z,13.78
2022-10-18T19:39:01.825Z,13.73
2022-10-18T19:41:28.834Z,13.78
2022-10-18T19:43:56.726Z,13.78
2022-10-18T19:46:23.514Z,13.73
2022-10-18T19:48:50.531Z,13.72
2022-10-18T19:51:20.316Z,13.73
2022-10-18T19:53:50.622Z,13.68
2022-10-18T19:56:21.013Z,13.66
2022-10-18T19:58:47.972Z,13.70
2022-10-18T20:01:15.155Z,13.64
2022-10-18T20:03:42.117Z,13.60
2022-10-18T20:06:09.242Z,13.63
2022-10-18T20:08:36.879Z,13.69
2022-10-18T20:11:09.187Z,13.61
2022-10-18T20:13:36.034Z,13.65
2022-10-18T20:16:04.158Z,13.73
2022-10-18T20:18:30.690Z,13.74
2022-10-18T20:20:57.078Z,13.72
2022-10-18T20:23:23.609Z,13.69
2022-10-18T20:26:01.680Z,13.72
2022-10-18T20:28:28.708Z,13.71
2022-10-18T20:31:05.812Z,13.66
2022-10-18T20:33:33.744Z,13.69
2022-10-18T20:36:18.122Z,13.62
2022-10-18T20:38:46.632Z,13.66
2022-10-18T20:41:25.678Z,13.66
2022-10-18T20:43:54.952Z,13.59
2022-10-18T20:46:22.127Z,13.60
2022-10-18T20:48:53.127Z,13.56
2022-10-18T20:51:20.539Z,13.54
2022-10-18T20:53:46.990Z,13.53
2022-10-18T20:56:21.197Z,13.54
2022-10-18T20:58:50.241Z,13.54
2022-10-18T21:01:21.813Z,13.55
2022-10-18T21:03:50.024Z,13.55
2022-10-18T21:06:40.978Z,13.55
2022-10-18T21:09:11.092Z,13.57
2022-10-18T21:11:39.974Z,13.56
2022-10-18T21:14:07.807Z,13.58
2022-10-18T21:16:35.854Z,13.54
2022-10-18T21:19:08.112Z,13.54
2022-10-18T21:21:34.994Z,13.52
2022-10-18T21:24:05.304Z,13.41
2022-10-18T21:26:34.421Z,13.44
2022-10-18T21:29:00.949Z,13.44
2022-10-18T21:31:29.892Z,13.45
2022-10-18T21:34:01.106Z,13.39
2022-10-18T21:36:31.637Z,13.37
2022-10-18T21:38:58.616Z,13.35
2022-10-18T21:41:25.615Z,13.32
2022-10-18T21:43:54.904Z,13.23
2022-10-18T21:46:23.961Z,13.24
2022-10-18T21:48:51.919Z,13.23
2022-10-18T21:51:19.942Z,13.20
2022-10-18T21:53:48.619Z,13.23
2022-10-18T21:56:17.149Z,13.21
2022-10-18T21:58:44.227Z,13.21
2022-10-18T22:01:19.148Z,13.27
2022-10-18T22:03:48.305Z,13.27
2022-10-18T22:06:16.507Z,13.31
2022-10-18T22:08:52.418Z,13.29
2022-10-18T22:11:21.120Z,13.25
2022-10-18T22:13:47.654Z,13.25
2022-10-18T22:16:16.409Z,13.22
2022-10-18T22:18:44.149Z,13.22
2022-10-18T22:21:12.214Z,13.23
2022-10-18T22:23:47.193Z,13.22
2022-10-18T22:26:16.325Z,13.11
2022-10-18T22:28:44.333Z,13.12
2022-10-18T22:31:19.114Z,13.11
2022-10-18T22:33:46.594Z,13.09
2022-10-18T22:36:13.009Z,13.00
2022-10-18T22:38:39.784Z,12.97
2022-10-18T22:41:11.486Z,13.00
2022-10-18T22:43:38.640Z,12.96
2022-10-18T22:46:07.781Z,12.85
2022-10-18T22:48:34.831Z,12.82
2022-10-18T22:51:01.644Z,12.84
2022-10-18T22:53:28.160Z,12.72
2022-10-18T22:55:54.553Z,12.73
2022-10-18T22:58:21.048Z,12.69
2022-10-18T23:00:47.855Z,12.64
2022-10-18T23:03:16.291Z,12.64
2022-10-18T23:05:44.805Z,12.53
2022-10-18T23:08:12.681Z,12.44
2022-10-18T23:10:41.088Z,12.38
2022-10-18T23:13:08.776Z,12.34
2022-10-18T23:15:35.676Z,12.26
2022-10-18T23:18:02.251Z,12.29
2022-10-18T23:20:28.626Z,12.25
2022-10-18T23:22:54.993Z,12.16
2022-10-18T23:25:21.426Z,12.10
2022-10-18T23:27:47.868Z,12.08
2022-10-18T23:30:14.396Z,12.04
2022-10-18T23:32:40.764Z,12.03
2022-10-18T23:35:07.470Z,12.01
2022-10-18T23:37:34.070Z,11.94
2022-10-18T23:40:00.654Z,11.91
2022-10-18T23:42:27.118Z,11.91
2022-10-18T23:44:53.503Z,11.88
2022-10-18T23:47:19.891Z,11.93
2022-10-18T23:49:46.277Z,11.93
2022-10-18T23:52:12.670Z,11.90
2022-10-18T23:54:39.060Z,11.92
2022-10-18T23:57:05.642Z,11.78
2022-10-18T23:59:32.045Z,11.80
